createdAt,value
2022-11-16T00:01:42.467Z,10.38
2022-11-16T00:04:09.879Z,10.42
2022-11-16T00:06:36.402Z,10.37
2022-11-16T00:09:22.144Z,10.45
2022-11-16T00:11:51.353Z,10.43
2022-11-16T00:14:19.149Z,10.43
2022-11-16T00:16:45.667Z,10.43
2022-11-16T00:19:12.944Z,10.44
2022-11-16T00:21:39.985Z,10.44
2022-11-16T00:24:07.264Z,10.47
2022-11-16T00:26:33.977Z,10.41
2022-11-16T00:29:00.622Z,10.44
2022-11-16T00:31:27.345Z,10.48
2022-11-16T00:33:53.848Z,10.46
2022-11-16T00:36:20.509Z,10.47
2022-11-16T00:38:47.990Z,10.47
2022-11-16T00:41:14.886Z,10.46
2022-11-16T00:43:41.632Z,10.49
2022-11-16T00:46:09.367Z,10.46
2022-11-16T00:48:36.343Z,10.47
2022-11-16T00:51:03.306Z,10.47
2022-11-16T00:53:29.988Z,10.43
2022-11-16T00:55:56.589Z,10.41
2022-11-16T00:58:23.453Z,10.45
2022-11-16T01:00:50.229Z,10.44
2022-11-16T01:03:17.029Z,10.42
2022-11-16T01:05:43.701Z,10.44
2022-11-16T01:08:10.552Z,10.46
2022-11-16T01:10:40.564Z,10.42
2022-11-16T01:13:07.510Z,10.47
2022-11-16T01:15:34.043Z,10.41
2022-11-16T01:18:00.704Z,10.45
2022-11-16T01:20:29.115Z,10.48
2022-11-16T01:22:56.347Z,10.48
2022-11-16T01:25:22.843Z,10.46
2022-11-16T01:27:49.460Z,10.47
2022-11-16T01:30:16.881Z,10.48
2022-11-16T01:32:43.758Z,10.48
2022-11-16T01:35:17.380Z,10.44
2022-11-16T01:37:45.142Z,10.47
2022-11-16T01:40:14.169Z,10.51
2022-11-16T01:42:41.253Z,10.53
2022-11-16T01:45:16.741Z,10.52
2022-11-16T01:47:43.784Z,10.51
2022-11-16T01:50:15.486Z,10.54
2022-11-16T01:52:48.315Z,10.54
2022-11-16T01:55:16.074Z,10.54
2022-11-16T01:57:44.658Z,10.51
2022-11-16T02:00:13.095Z,10.54
2022-11-16T02:02:39.672Z,10.52
2022-11-16T02:05:07.509Z,10.52
2022-11-16T02:08:04.840Z,10.54
2022-11-16T02:10:42.644Z,10.53
2022-11-16T02:13:54.074Z,10.51
2022-11-16T02:16:44.915Z,10.42
2022-11-16T02:19:42.262Z,10.49
2022-11-16T02:22:37.206Z,10.48
2022-11-16T02:25:20.457Z,10.51
2022-11-16T02:28:05.216Z,10.51
2022-11-16T02:30:32.128Z,10.51
2022-11-16T02:33:08.992Z,10.53
2022-11-16T02:35:43.552Z,10.48
2022-11-16T02:38:15.712Z,10.54
2022-11-16T02:40:47.742Z,10.53
2022-11-16T02:43:23.167Z,10.47
2022-11-16T02:45:53.489Z,10.51
2022-11-16T02:48:29.001Z,10.48
2022-11-16T02:50:56.191Z,10.50
2022-11-16T02:53:24.368Z,10.51
2022-11-16T02:55:51.107Z,10.52
2022-11-16T02:58:24.546Z,10.52
2022-11-16T03:01:46.748Z,10.52
2022-11-16T03:04:29.991Z,10.47
2022-11-16T03:06:58.305Z,10.52
2022-11-16T03:09:31.996Z,10.50
2022-11-16T03:12:01.327Z,10.54
2022-11-16T03:14:36.996Z,10.53
2022-11-16T03:17:08.136Z,10.49
2022-11-16T03:19:43.195Z,10.54
2022-11-16T03:22:18.433Z,10.53
2022-11-16T03:24:45.600Z,10.51
2022-11-16T03:27:12.161Z,10.51
2022-11-16T03:30:05.622Z,10.50
2022-11-16T03:32:41.419Z,10.52
2022-11-16T03:35:15.363Z,10.52
2022-11-16T03:37:43.021Z,10.50
2022-11-16T03:40:11.504Z,10.52
2022-11-16T03:42:39.070Z,10.52
2022-11-16T03:45:06.243Z,10.49
2022-11-16T03:47:32.819Z,10.49
2022-11-16T03:49:59.306Z,10.52
2022-11-16T03:52:25.840Z,10.51
2022-11-16T03:54:52.552Z,10.50
2022-11-16T03:57:19.158Z,10.50
2022-11-16T03:59:46.134Z,10.47
2022-11-16T04:02:12.667Z,10.48
2022-11-16T04:04:58.015Z,10.46
2022-11-16T04:07:43.050Z,10.53
2022-11-16T04:10:28.785Z,10.54
2022-11-16T04:13:14.862Z,10.52
2022-11-16T04:16:00.258Z,10.53
2022-11-16T04:18:45.524Z,10.51
2022-11-16T04:21:49.555Z,10.53
2022-11-16T04:24:22.513Z,10.52
2022-11-16T04:27:14.150Z,10.53
2022-11-16T04:29:41.701Z,10.51
2022-11-16T04:32:27.464Z,10.53
2022-11-16T04:35:12.779Z,10.52
2022-11-16T04:37:48.568Z,10.52
2022-11-16T04:40:21.004Z,10.50
2022-11-16T04:42:55.431Z,10.51
2022-11-16T04:45:41.372Z,10.51
2022-11-16T04:48:08.865Z,10.50
2022-11-16T04:50:35.940Z,10.46
2022-11-16T04:53:03.423Z,10.46
2022-11-16T04:55:30.073Z,10.46
2022-11-16T04:57:56.870Z,10.48
2022-11-16T05:00:23.511Z,10.46
2022-11-16T05:02:50.194Z,10.46
2022-11-16T05:05:16.861Z,10.50
2022-11-16T05:07:43.692Z,10.48
2022-11-16T05:10:10.881Z,10.47
2022-11-16T05:12:37.699Z,10.49
2022-11-16T05:15:05.381Z,10.51
2022-11-16T05:17:32.022Z,10.47
2022-11-16T05:20:17.382Z,10.47
2022-11-16T05:22:43.961Z,10.48
2022-11-16T05:25:11.293Z,10.52
2022-11-16T05:27:38.184Z,10.53
2022-11-16T05:30:06.055Z,10.51
2022-11-16T05:32:32.747Z,10.46
2022-11-16T05:34:59.335Z,10.46
2022-11-16T05:37:26.844Z,10.47
2022-11-16T05:39:54.959Z,10.52
2022-11-16T05:42:21.718Z,10.51
2022-11-16T05:44:48.538Z,10.54
2022-11-16T05:47:15.185Z,10.50
2022-11-16T05:49:41.899Z,10.55
2022-11-16T05:52:08.490Z,10.54
2022-11-16T05:54:35.020Z,10.54
2022-11-16T05:57:01.606Z,10.48
2022-11-16T05:59:30.153Z,10.43
2022-11-16T06:01:57.813Z,10.45
2022-11-16T06:04:24.990Z,10.35
2022-11-16T06:06:52.057Z,10.38
2022-11-16T06:09:18.901Z,10.35
2022-11-16T06:11:45.475Z,10.42
2022-11-16T06:14:12.098Z,10.32
2022-11-16T06:16:38.644Z,10.43
2022-11-16T06:19:06.193Z,10.31
2022-11-16T06:21:33.110Z,10.35
2022-11-16T06:24:00.074Z,10.37
2022-11-16T06:26:26.644Z,10.44
2022-11-16T06:28:54.950Z,10.39
2022-11-16T06:31:21.824Z,10.34
2022-11-16T06:33:48.413Z,10.28
2022-11-16T06:36:14.962Z,10.36
2022-11-16T06:38:41.545Z,10.37
2022-11-16T06:41:08.170Z,10.44
2022-11-16T06:43:34.762Z,10.34
2022-11-16T06:46:01.536Z,10.40
2022-11-16T06:48:28.140Z,10.39
2022-11-16T06:50:54.762Z,10.38
2022-11-16T06:53:27.597Z,10.35
2022-11-16T06:55:55.714Z,10.44
2022-11-16T06:58:22.364Z,10.48
2022-11-16T07:00:49.102Z,10.54
2022-11-16T07:03:15.810Z,10.58
2022-11-16T07:05:42.362Z,10.57
2022-11-16T07:08:09.090Z,10.56
2022-11-16T07:10:37.107Z,10.67
2022-11-16T07:13:04.693Z,10.74
2022-11-16T07:15:32.122Z,10.81
2022-11-16T07:18:06.618Z,10.85
2022-11-16T07:20:34.106Z,10.89
2022-11-16T07:23:01.933Z,10.98
2022-11-16T07:25:28.551Z,11.06
2022-11-16T07:27:55.118Z,11.12
2022-11-16T07:30:21.691Z,11.16
2022-11-16T07:32:48.228Z,11.20
2022-11-16T07:35:14.801Z,11.33
2022-11-16T07:37:41.429Z,11.41
2022-11-16T07:40:08.856Z,11.43
2022-11-16T07:42:35.469Z,11.53
2022-11-16T07:45:02.020Z,11.61
2022-11-16T07:47:28.600Z,11.74
2022-11-16T07:49:56.314Z,11.80
2022-11-16T07:52:22.824Z,11.83
2022-11-16T07:54:49.393Z,11.81
2022-11-16T07:57:15.863Z,11.86
2022-11-16T07:59:42.340Z,11.83
2022-11-16T08:02:10.385Z,11.90
2022-11-16T08:04:38.698Z,11.96
2022-11-16T08:07:05.576Z,11.89
2022-11-16T08:09:32.116Z,11.94
2022-11-16T08:11:58.657Z,12.06
2022-11-16T08:14:25.219Z,12.07
2022-11-16T08:16:51.693Z,12.12
2022-11-16T08:19:18.191Z,12.09
2022-11-16T08:21:45.724Z,12.06
2022-11-16T08:24:12.250Z,11.99
2022-11-16T08:26:38.917Z,11.99
2022-11-16T08:29:05.467Z,12.03
2022-11-16T08:31:32.032Z,12.01
2022-11-16T08:34:08.063Z,11.99
2022-11-16T08:36:36.461Z,11.92
2022-11-16T08:39:03.085Z,11.91
2022-11-16T08:41:29.811Z,11.95
2022-11-16T08:43:56.341Z,12.06
2022-11-16T08:46:22.961Z,12.01
2022-11-16T08:48:49.561Z,12.06
2022-11-16T08:51:19.669Z,12.09
2022-11-16T08:53:48.492Z,12.00
2022-11-16T08:56:17.039Z,12.04
2022-11-16T08:58:46.697Z,12.04
2022-11-16T09:01:16.840Z,12.06
2022-11-16T09:03:43.486Z,12.05
2022-11-16T09:06:10.855Z,12.04
2022-11-16T09:08:39.588Z,12.12
2022-11-16T09:11:11.475Z,12.28
2022-11-16T09:13:38.573Z,12.43
2022-11-16T09:16:05.720Z,12.55
2022-11-16T09:18:32.881Z,12.62
2022-11-16T09:20:59.787Z,12.63
2022-11-16T09:23:26.272Z,12.64
2022-11-16T09:25:53.413Z,12.63
2022-11-16T09:28:20.910Z,12.65
2022-11-16T09:30:50.421Z,12.55
2022-11-16T09:33:17.001Z,12.53
2022-11-16T09:35:43.531Z,12.46
2022-11-16T09:38:11.795Z,12.47
2022-11-16T09:40:45.034Z,12.44
2022-11-16T09:43:26.495Z,12.39
2022-11-16T09:46:03.153Z,12.36
2022-11-16T09:48:35.461Z,12.40
2022-11-16T09:51:08.241Z,12.44
2022-11-16T09:53:56.309Z,12.47
2022-11-16T09:56:28.570Z,12.42
2022-11-16T09:59:42.793Z,12.49
2022-11-16T10:02:28.973Z,12.59
2022-11-16T10:05:22.655Z,12.74
2022-11-16T10:07:54.905Z,13.04
2022-11-16T10:10:34.970Z,13.22
2022-11-16T10:13:32.820Z,13.37
2022-11-16T10:16:21.408Z,13.41
2022-11-16T10:19:26.803Z,13.61
2022-11-16T10:22:01.478Z,14.08
2022-11-16T10:24:50.947Z,14.12
2022-11-16T10:27:38.664Z,14.15
2022-11-16T10:30:11.780Z,14.48
2022-11-16T10:33:15.836Z,14.53
2022-11-16T10:35:53.593Z,14.52
2022-11-16T10:38:28.067Z,14.35
2022-11-16T10:41:31.561Z,14.11
2022-11-16T10:43:59.500Z,14.21
2022-11-16T10:46:36.414Z,14.28
2022-11-16T10:49:14.339Z,14.31
2022-11-16T10:51:40.799Z,14.37
2022-11-16T10:54:18.428Z,14.49
2022-11-16T10:56:49.006Z,14.32
2022-11-16T10:59:19.451Z,14.48
2022-11-16T11:01:51.441Z,14.53
2022-11-16T11:04:28.819Z,14.52
2022-11-16T11:06:58.103Z,14.57
2022-11-16T11:09:24.704Z,14.55
2022-11-16T11:12:39.445Z,14.58
2022-11-16T11:15:12.001Z,14.82
2022-11-16T11:17:41.703Z,14.87
2022-11-16T11:20:28.781Z,14.79
2022-11-16T11:22:56.688Z,14.73
2022-11-16T11:25:27.086Z,14.67
2022-11-16T11:28:19.093Z,14.41
2022-11-16T11:31:17.227Z,14.28
2022-11-16T11:33:52.105Z,14.33
2022-11-16T11:36:25.120Z,14.19
2022-11-16T11:39:01.931Z,14.18
2022-11-16T11:41:33.871Z,14.13
2022-11-16T11:44:05.468Z,14.11
2022-11-16T11:47:23.678Z,14.09
2022-11-16T11:49:38.632Z,14.15
2022-11-16T11:52:37.867Z,14.33
2022-11-16T11:55:07.890Z,15.62
2022-11-16T11:57:42.780Z,15.90
2022-11-16T12:00:14.080Z,15.68
2022-11-16T12:03:01.064Z,15.45
2022-11-16T12:05:46.169Z,15.29
2022-11-16T12:08:33.085Z,15.04
2022-11-16T12:11:20.621Z,14.84
2022-11-16T12:14:38.116Z,14.62
2022-11-16T12:17:09.866Z,14.57
2022-11-16T12:20:21.370Z,14.44
2022-11-16T12:23:04.377Z,14.38
2022-11-16T12:25:42.471Z,14.45
2022-11-16T12:28:15.210Z,14.52
2022-11-16T12:31:06.874Z,14.46
2022-11-16T12:34:05.823Z,14.55
2022-11-16T12:36:44.566Z,14.57
2022-11-16T12:39:37.526Z,14.37
2022-11-16T12:42:46.151Z,14.35
2022-11-16T12:45:40.852Z,14.34
2022-11-16T12:48:34.948Z,14.32
2022-11-16T12:51:38.572Z,14.29
2022-11-16T12:54:29.638Z,14.24
2022-11-16T12:57:25.313Z,14.16
2022-11-16T13:00:11.964Z,14.12
2022-11-16T13:03:13.303Z,14.01
2022-11-16T13:05:39.977Z,13.90
2022-11-16T13:08:15.113Z,13.96
2022-11-16T13:10:45.551Z,13.96
2022-11-16T13:13:41.165Z,13.94
2022-11-16T13:16:08.545Z,14.01
2022-11-16T13:18:41.555Z,14.07
2022-11-16T13:21:18.794Z,14.13
2022-11-16T13:24:03.940Z,14.19
2022-11-16T13:26:42.631Z,14.34
2022-11-16T13:29:15.444Z,14.40
2022-11-16T13:32:19.555Z,14.39
2022-11-16T13:34:46.947Z,14.31
2022-11-16T13:37:39.838Z,14.19
2022-11-16T13:40:06.350Z,14.13
2022-11-16T13:42:35.870Z,14.04
2022-11-16T13:45:20.869Z,13.99
2022-11-16T13:47:56.002Z,13.93
2022-11-16T13:50:34.493Z,13.97
2022-11-16T13:54:04.079Z,13.94
2022-11-16T13:56:02.947Z,13.95
2022-11-16T13:58:31.500Z,13.93
2022-11-16T14:01:08.793Z,13.84
2022-11-16T14:03:40.704Z,13.79
2022-11-16T14:06:13.259Z,13.76
2022-11-16T14:08:39.774Z,13.76
2022-11-16T14:11:35.084Z,13.68
2022-11-16T14:14:06.157Z,13.62
2022-11-16T14:16:47.369Z,13.57
2022-11-16T14:19:47.247Z,13.57
2022-11-16T14:22:31.295Z,13.56
2022-11-16T14:25:44.341Z,13.48
2022-11-16T14:28:35.343Z,13.49
2022-11-16T14:31:18.131Z,13.40
2022-11-16T14:33:49.988Z,13.40
2022-11-16T14:36:17.098Z,13.34
2022-11-16T14:38:44.068Z,13.32
2022-11-16T14:41:23.052Z,13.33
2022-11-16T14:43:53.599Z,13.29
2022-11-16T14:46:27.935Z,13.28
2022-11-16T14:48:56.644Z,13.34
2022-11-16T14:51:30.005Z,13.32
2022-11-16T14:54:04.235Z,13.35
2022-11-16T14:56:30.912Z,13.35
2022-11-16T14:59:02.033Z,13.34
2022-11-16T15:01:35.025Z,13.30
2022-11-16T15:04:07.913Z,13.20
2022-11-16T15:06:43.512Z,13.19
2022-11-16T15:09:18.321Z,13.11
2022-11-16T15:12:07.198Z,13.11
2022-11-16T15:14:40.409Z,13.00
2022-11-16T15:17:08.051Z,12.95
2022-11-16T15:19:34.551Z,12.91
2022-11-16T15:22:04.114Z,12.90
2022-11-16T15:24:33.866Z,12.85
2022-11-16T15:27:10.749Z,12.79
2022-11-16T15:29:37.585Z,12.74
2022-11-16T15:32:04.825Z,12.69
2022-11-16T15:34:32.044Z,12.66
2022-11-16T15:36:58.533Z,12.62
2022-11-16T15:39:31.706Z,12.58
2022-11-16T15:42:03.486Z,12.51
2022-11-16T15:44:31.861Z,12.47
2022-11-16T15:46:59.419Z,12.39
2022-11-16T15:49:35.319Z,12.39
2022-11-16T15:52:02.330Z,12.36
2022-11-16T15:54:51.182Z,12.33
2022-11-16T15:57:19.399Z,12.31
2022-11-16T15:59:54.479Z,12.29
2022-11-16T16:02:24.333Z,12.27
2022-11-16T16:04:51.067Z,12.27
2022-11-16T16:07:37.895Z,12.25
2022-11-16T16:10:22.028Z,12.29
2022-11-16T16:13:00.093Z,12.29
2022-11-16T16:15:36.442Z,12.29
2022-11-16T16:18:11.472Z,12.28
2022-11-16T16:20:38.105Z,12.29
2022-11-16T16:23:11.268Z,12.31
2022-11-16T16:25:38.256Z,12.28
2022-11-16T16:28:05.052Z,12.29
2022-11-16T16:30:34.615Z,12.25
2022-11-16T16:33:02.317Z,12.27
2022-11-16T16:35:29.055Z,12.27
2022-11-16T16:38:00.906Z,12.27
2022-11-16T16:40:28.800Z,12.25
2022-11-16T16:42:56.317Z,12.27
2022-11-16T16:45:38.656Z,12.25
2022-11-16T16:48:06.138Z,12.26
2022-11-16T16:50:32.673Z,12.27
2022-11-16T16:52:59.196Z,12.26
2022-11-16T16:55:26.035Z,12.24
2022-11-16T16:57:56.500Z,12.21
2022-11-16T17:00:23.801Z,12.23
2022-11-16T17:02:50.609Z,12.20
2022-11-16T17:05:17.238Z,12.16
2022-11-16T17:07:43.762Z,12.15
2022-11-16T17:10:10.219Z,12.11
2022-11-16T17:12:37.098Z,12.11
2022-11-16T17:15:03.717Z,12.10
2022-11-16T17:17:31.439Z,12.10
2022-11-16T17:19:58.013Z,12.06
2022-11-16T17:22:24.513Z,12.09
2022-11-16T17:24:51.288Z,12.07
2022-11-16T17:27:17.891Z,12.08
2022-11-16T17:29:44.406Z,12.09
2022-11-16T17:32:11.025Z,12.05
2022-11-16T17:34:40.092Z,12.02
2022-11-16T17:37:06.748Z,12.06
2022-11-16T17:39:33.300Z,12.01
2022-11-16T17:41:59.868Z,12.03
2022-11-16T17:44:26.740Z,12.00
2022-11-16T17:46:53.298Z,12.02
2022-11-16T17:49:20.002Z,12.01
2022-11-16T17:51:46.482Z,12.04
2022-11-16T17:54:13.176Z,11.97
2022-11-16T17:56:39.937Z,11.96
2022-11-16T17:59:06.585Z,11.97
2022-11-16T18:01:33.371Z,11.95
2022-11-16T18:04:01.045Z,11.91
2022-11-16T18:06:28.461Z,11.87
2022-11-16T18:08:55.020Z,11.83
2022-11-16T18:11:24.283Z,11.82
2022-11-16T18:13:56.550Z,11.79
2022-11-16T18:16:25.917Z,11.80
2022-11-16T18:19:06.273Z,11.78
2022-11-16T18:21:39.453Z,11.74
2022-11-16T18:24:06.262Z,11.77
2022-11-16T18:26:32.954Z,11.77
2022-11-16T18:28:59.462Z,11.72
2022-11-16T18:31:26.339Z,11.75
2022-11-16T18:33:52.867Z,11.75
2022-11-16T18:36:20.714Z,11.74
2022-11-16T18:38:47.736Z,11.73
2022-11-16T18:41:14.224Z,11.70
2022-11-16T18:43:49.903Z,11.69
2022-11-16T18:46:20.671Z,11.68
2022-11-16T18:48:47.533Z,11.68
2022-11-16T18:51:15.045Z,11.69
2022-11-16T18:53:41.836Z,11.68
2022-11-16T18:56:09.029Z,11.69
2022-11-16T18:58:52.716Z,11.65
2022-11-16T19:01:23.566Z,11.65
2022-11-16T19:03:51.878Z,11.64
2022-11-16T19:06:18.958Z,11.65
2022-11-16T19:08:51.752Z,11.63
2022-11-16T19:11:22.413Z,11.65
2022-11-16T19:13:53.538Z,11.64
2022-11-16T19:16:20.203Z,11.65
2022-11-16T19:18:46.696Z,11.62
2022-11-16T19:21:15.412Z,11.63
2022-11-16T19:23:44.480Z,11.61
2022-11-16T19:26:13.013Z,11.62
2022-11-16T19:28:41.615Z,11.63
2022-11-16T19:31:16.313Z,11.64
2022-11-16T19:33:44.543Z,11.60
2022-11-16T19:36:11.173Z,11.63
2022-11-16T19:38:37.963Z,11.57
2022-11-16T19:41:05.273Z,11.57
2022-11-16T19:43:32.285Z,11.59
2022-11-16T19:46:11.167Z,11.64
2022-11-16T19:48:38.924Z,11.62
2022-11-16T19:51:07.367Z,11.62
2022-11-16T19:53:34.740Z,11.61
2022-11-16T19:56:02.110Z,11.60
2022-11-16T19:58:29.024Z,11.63
2022-11-16T20:01:03.425Z,11.65
2022-11-16T20:03:31.360Z,11.65
2022-11-16T20:06:11.129Z,11.63
2022-11-16T20:08:39.128Z,11.61
2022-11-16T20:11:21.317Z,11.62
2022-11-16T20:13:48.948Z,11.56
2022-11-16T20:16:17.123Z,11.61
2022-11-16T20:18:44.527Z,11.61
2022-11-16T20:21:22.207Z,11.61
2022-11-16T20:23:50.964Z,11.61
2022-11-16T20:26:19.154Z,11.57
2022-11-16T20:28:46.052Z,11.61
2022-11-16T20:31:19.270Z,11.62
2022-11-16T20:33:56.802Z,11.64
2022-11-16T20:36:25.363Z,11.63
2022-11-16T20:38:52.651Z,11.59
2022-11-16T20:41:22.313Z,11.59
2022-11-16T20:43:56.536Z,11.56
2022-11-16T20:46:25.659Z,11.54
2022-11-16T20:48:52.943Z,11.53
2022-11-16T20:51:20.441Z,11.44
2022-11-16T20:53:48.662Z,11.42
2022-11-16T20:56:16.811Z,11.41
2022-11-16T20:58:44.201Z,11.38
2022-11-16T21:01:13.221Z,11.37
2022-11-16T21:03:40.977Z,11.32
2022-11-16T21:06:08.734Z,11.33
2022-11-16T21:08:37.085Z,11.31
2022-11-16T21:11:14.553Z,11.30
2022-11-16T21:14:00.089Z,11.24
2022-11-16T21:16:29.804Z,11.21
2022-11-16T21:18:56.355Z,11.17
2022-11-16T21:21:24.134Z,11.13
2022-11-16T21:23:54.124Z,11.06
2022-11-16T21:26:23.491Z,10.97
2022-11-16T21:28:50.027Z,10.93
2022-11-16T21:31:19.087Z,10.88
2022-11-16T21:33:47.119Z,10.82
2022-11-16T21:36:16.182Z,10.72
2022-11-16T21:38:43.188Z,10.72
2022-11-16T21:41:11.415Z,10.64
2022-11-16T21:43:38.275Z,10.55
2022-11-16T21:46:07.268Z,10.50
2022-11-16T21:48:35.976Z,10.44
2022-11-16T21:51:04.827Z,10.37
2022-11-16T21:53:32.387Z,10.31
2022-11-16T21:55:59.192Z,10.29
2022-11-16T21:58:26.595Z,10.24
2022-11-16T22:00:57.540Z,10.15
2022-11-16T22:03:25.619Z,10.13
2022-11-16T22:06:16.026Z,10.07
2022-11-16T22:08:42.940Z,10.03
2022-11-16T22:11:10.367Z,10.00
2022-11-16T22:13:39.778Z,9.98
2022-11-16T22:16:07.126Z,9.94
2022-11-16T22:18:34.118Z,9.88
2022-11-16T22:21:01.978Z,9.87
2022-11-16T22:23:29.694Z,9.86
2022-11-16T22:26:01.605Z,9.80
2022-11-16T22:28:28.163Z,9.73
2022-11-16T22:31:16.293Z,9.71
2022-11-16T22:33:43.035Z,9.69
2022-11-16T22:36:11.297Z,9.67
2022-11-16T22:38:38.209Z,9.64
2022-11-16T22:41:05.058Z,9.60
2022-11-16T22:43:32.355Z,9.57
2022-11-16T22:46:00.302Z,9.53
2022-11-16T22:48:34.478Z,9.50
2022-11-16T22:51:07.724Z,9.46
2022-11-16T22:53:35.646Z,9.45
2022-11-16T22:56:10.435Z,9.44
2022-11-16T22:58:38.969Z,9.38
2022-11-16T23:01:09.328Z,9.27
2022-11-16T23:03:36.769Z,9.16
2022-11-16T23:06:04.821Z,9.06
2022-11-16T23:08:31.854Z,8.99
2022-11-16T23:11:54.485Z,8.98
2022-11-16T23:14:40.087Z,8.88
2022-11-16T23:17:08.510Z,8.89
2022-11-16T23:19:53.560Z,8.85
2022-11-16T23:22:41.462Z,8.82
2022-11-16T23:25:30.034Z,8.76
2022-11-16T23:28:08.170Z,8.74
2022-11-16T23:30:35.731Z,8.66
2022-11-16T23:33:03.096Z,8.64
2022-11-16T23:35:38.071Z,8.63
2022-11-16T23:38:06.525Z,8.61
2022-11-16T23:40:35.534Z,8.58
2022-11-16T23:43:20.466Z,8.55
2022-11-16T23:45:47.299Z,8.47
2022-11-16T23:48:15.663Z,8.34
2022-11-16T23:50:42.785Z,8.27
2022-11-16T23:53:10.108Z,8.30
2022-11-16T23:55:41.175Z,8.27
2022-11-16T23:58:14.430Z,8.30
